Lafitte, Louisiana
Current Conditions -  °F | °C
As of 5:55 PM on Friday 21 Nov 2014 (Local Time) from KNBG Reporting Station
Few Clouds Few Clouds  
Wind Chill: 59°   Ceiling: Unl
Heat Index: 59°   Visibility: 10mi
Dew Point: 52°   Wind: 8mph
Humidity: 78%   Direction: 70°ENE
Pressure: 30.26"   Gusts: NA
Location:  29.68°N, 90.1°W
Report Text: KNBG 212355Z 07007KT 10SM FEW035 15/11 A3026 RMK AO2 SLP246 T01500111 10217 20144 51008 $
Loading
Personal Weather Stations






























Interactive Weather Map New forecast layout! Learn more

10-Day Weather Forecast

Advertisements
Track Severe Weather on mobile